Observation data for Dora on 10/14/2019      Previous  Date       Current Mesonet Observations  Soil Data  Daily Summary Page  Observations in Plain Language
KDR1 140500Z 21010KT 15/00 A3003 RMK A01 T01460004  RH  038%=      5-min Rain = 0
KDR1 140505Z 21010KT 15/00 A3003 RMK A01 T01490004  RH  038%=      5-min Rain = 0
KDR1 140510Z 22010KT 15/01 A3003 RMK A01 T01460005  RH  039%=      5-min Rain = 0
KDR1 140515Z 22010KT 14/01 A3003 RMK A01 T01410007  RH  040%=      5-min Rain = 0
KDR1 140520Z 22010KT 14/01 A3003 RMK A01 T01380007  RH  041%=      5-min Rain = 0
KDR1 140525Z 22009KT 14/01 A3003 RMK A01 T01350009  RH  043%=      5-min Rain = 0
KDR1 140530Z 22010KT 14/01 A3003 RMK A01 T01370008  RH  042%=      5-min Rain = 0
KDR1 140535Z 22010KT 14/01 A3003 RMK A01 T01380007  RH  041%=      5-min Rain = 0
KDR1 140540Z 22010KT 14/01 A3003 RMK A01 T01400007  RH  041%=      5-min Rain = 0
KDR1 140545Z 23009KT 13/01 A3003 RMK A01 T01330009  RH  043%=      5-min Rain = 0
KDR1 140550Z 23008KT 13/01 A3003 RMK A01 T01270011  RH  046%=      5-min Rain = 0
KDR1 140555Z 22008KT 12/01 A3002 RMK A01 T01210013  RH  048%=      5-min Rain = 0
KDR1 140600Z 22008KT 12/01 A3002 RMK A01 T01200014  RH  049%=      5-min Rain = 0
KDR1 140605Z 22008KT 12/02 A3002 RMK A01 T01200015  RH  049%=      5-min Rain = 0
KDR1 140610Z 22009KT 12/02 A3002 RMK A01 T01210015  RH  049%=      5-min Rain = 0
KDR1 140615Z 22009KT 12/02 A3002 RMK A01 T01200017  RH  050%=      5-min Rain = 0
KDR1 140620Z 22009KT 13/02 A3002 RMK A01 T01250018  RH  049%=      5-min Rain = 0
KDR1 140625Z 23010KT 12/02 A3002 RMK A01 T01230020  RH  050%=      5-min Rain = 0
KDR1 140630Z 22009KT 12/02 A3002 RMK A01 T01200021  RH  052%=      5-min Rain = 0
KDR1 140635Z 22009KT 12/02 A3002 RMK A01 T01200023  RH  052%=      5-min Rain = 0
KDR1 140640Z 23009KT 12/03 A3002 RMK A01 T01180025  RH  054%=      5-min Rain = 0
KDR1 140645Z 23009KT 12/03 A3002 RMK A01 T01200026  RH  053%=      5-min Rain = 0
KDR1 140650Z 23009KT 13/03 A3002 RMK A01 T01260027  RH  052%=      5-min Rain = 0
KDR1 140655Z 23008KT 12/03 A3002 RMK A01 T01240027  RH  052%=      5-min Rain = 0
KDR1 140700Z 22010KT 13/03 A3002 RMK A01 T01310027  RH  050%=      5-min Rain = 0
KDR1 140705Z 22009KT 13/03 A3002 RMK A01 T01280027  RH  051%=      5-min Rain = 0
KDR1 140710Z 22008KT 13/03 A3002 RMK A01 T01250027  RH  052%=      5-min Rain = 0
KDR1 140715Z 22009KT 13/03 A3002 RMK A01 T01260028  RH  052%=      5-min Rain = 0
KDR1 140720Z 23010KT 13/03 A3002 RMK A01 T01280028  RH  051%=      5-min Rain = 0
KDR1 140725Z 23012KT 14/03 A3002 RMK A01 T01360028  RH  049%=      5-min Rain = 0
KDR1 140730Z 23011KT 13/03 A3002 RMK A01 T01320029  RH  050%=      5-min Rain = 0
KDR1 140735Z 23010KT 13/03 A3002 RMK A01 T01280030  RH  052%=      5-min Rain = 0
KDR1 140740Z 23012KT 13/03 A3002 RMK A01 T01290030  RH  052%=      5-min Rain = 0
KDR1 140745Z 23012KT 14/03 A3002 RMK A01 T01390028  RH  048%=      5-min Rain = 0
KDR1 140750Z 23011KT 14/03 A3002 RMK A01 T01400027  RH  047%=      5-min Rain = 0
KDR1 140755Z 23011KT 14/03 A3002 RMK A01 T01380028  RH  048%=      5-min Rain = 0
KDR1 140800Z 22010KT 14/03 A3002 RMK A01 T01380027  RH  048%=      5-min Rain = 0
KDR1 140805Z 23010KT 14/02 A3002 RMK A01 T01390024  RH  046%=      5-min Rain = 0
KDR1 140810Z 23010KT 14/02 A3002 RMK A01 T01400024  RH  046%=      5-min Rain = 0
KDR1 140815Z 23009KT 14/02 A3002 RMK A01 T01370024  RH  047%=      5-min Rain = 0
KDR1 140820Z 23009KT 13/03 A3002 RMK A01 T01330025  RH  049%=      5-min Rain = 0
KDR1 140825Z 23008KT 13/03 A3002 RMK A01 T01320025  RH  049%=      5-min Rain = 0
KDR1 140830Z 23010KT 13/02 A3002 RMK A01 T01340023  RH  048%=      5-min Rain = 0
KDR1 140835Z 23011KT 13/02 A3001 RMK A01 T01340024  RH  048%=      5-min Rain = 0
KDR1 140840Z 23011KT 13/02 A3002 RMK A01 T01340023  RH  048%=      5-min Rain = 0
KDR1 140845Z 23011KT 13/02 A3002 RMK A01 T01340022  RH  047%=      5-min Rain = 0
KDR1 140850Z 23010KT 14/02 A3001 RMK A01 T01350022  RH  047%=      5-min Rain = 0
KDR1 140855Z 23011KT 13/02 A3001 RMK A01 T01330022  RH  048%=      5-min Rain = 0
KDR1 140900Z 23010KT 13/02 A3001 RMK A01 T01310022  RH  048%=      5-min Rain = 0
KDR1 140905Z 24010KT 13/02 A3001 RMK A01 T01330020  RH  047%=      5-min Rain = 0
KDR1 140910Z 24009KT 13/02 A3001 RMK A01 T01310020  RH  047%=      5-min Rain = 0
KDR1 140915Z 23008KT 13/02 A3001 RMK A01 T01310021  RH  048%=      5-min Rain = 0
KDR1 140920Z 24005KT 13/02 A3001 RMK A01 T01300022  RH  049%=      5-min Rain = 0
KDR1 140925Z 22007KT 13/02 A3001 RMK A01 T01330022  RH  047%=      5-min Rain = 0
KDR1 140930Z 22006KT 13/02 A3001 RMK A01 T01290023  RH  049%=      5-min Rain = 0
KDR1 140935Z 22006KT 13/02 A3001 RMK A01 T01260024  RH  050%=      5-min Rain = 0
KDR1 140940Z 21005KT 13/02 A3001 RMK A01 T01270024  RH  050%=      5-min Rain = 0
KDR1 140945Z 23005KT 12/03 A30 RMK A01 T01230025  RH  052%=      5-min Rain = 0
KDR1 140950Z 23005KT 13/03 A30 RMK A01 T01250025  RH  051%=      5-min Rain = 0
KDR1 140955Z 23006KT 13/02 A30 RMK A01 T01280024  RH  050%=      5-min Rain = 0
KDR1 141000Z 23006KT 13/02 A30 RMK A01 T01310023  RH  049%=      5-min Rain = 0
KDR1 141005Z 22006KT 13/02 A30 RMK A01 T01280024  RH  050%=      5-min Rain = 0
KDR1 141010Z 24009KT 12/03 A3001 RMK A01 T01240026  RH  052%=      5-min Rain = 0
KDR1 141015Z 24008KT 12/03 A30 RMK A01 T01230026  RH  052%=      5-min Rain = 0
KDR1 141020Z 26008KT 12/03 A30 RMK A01 T01240027  RH  052%=      5-min Rain = 0
KDR1 141025Z 26009KT 13/03 A30 RMK A01 T01330025  RH  049%=      5-min Rain = 0
KDR1 141030Z 24009KT 13/03 A3001 RMK A01 T01290027  RH  051%=      5-min Rain = 0
KDR1 141035Z 24008KT 12/03 A3001 RMK A01 T01230029  RH  054%=      5-min Rain = 0
KDR1 141040Z 24008KT 12/03 A3001 RMK A01 T01200030  RH  055%=      5-min Rain = 0
KDR1 141045Z 25009KT 12/03 A3001 RMK A01 T01220031  RH  055%=      5-min Rain = 0
KDR1 141050Z 25009KT 12/03 A3001 RMK A01 T01240031  RH  054%=      5-min Rain = 0
KDR1 141055Z 25009KT 13/03 A3001 RMK A01 T01250032  RH  054%=      5-min Rain = 0
KDR1 141100Z 25009KT 13/03 A3001 RMK A01 T01270032  RH  053%=      5-min Rain = 0
KDR1 141105Z 25010KT 13/03 A3001 RMK A01 T01310031  RH  051%=      5-min Rain = 0
KDR1 141110Z 25008KT 13/03 A3002 RMK A01 T01330030  RH  051%=      5-min Rain = 0
KDR1 141115Z 26008KT 13/03 A3002 RMK A01 T01290031  RH  052%=      5-min Rain = 0
KDR1 141120Z 25008KT 13/03 A3002 RMK A01 T01310029  RH  051%=      5-min Rain = 0
KDR1 141125Z 25007KT 13/03 A3002 RMK A01 T01320030  RH  051%=      5-min Rain = 0
KDR1 141130Z 23006KT 13/03 A3002 RMK A01 T01270032  RH  053%=      5-min Rain = 0
KDR1 141135Z 26006KT 12/03 A3002 RMK A01 T01230033  RH  055%=      5-min Rain = 0
KDR1 141140Z 25006KT 12/03 A3002 RMK A01 T01220033  RH  055%=      5-min Rain = 0
KDR1 141145Z 25006KT 12/03 A3002 RMK A01 T01230032  RH  055%=      5-min Rain = 0
KDR1 141150Z 25008KT 13/03 A3002 RMK A01 T01250030  RH  053%=      5-min Rain = 0
KDR1 141155Z 24009KT 12/03 A3002 RMK A01 T01240031  RH  054%=      5-min Rain = 0
KDR1 141200Z 26007KT 12/03 A3002 RMK A01 T01220030  RH  054%=      5-min Rain = 0
KDR1 141205Z 25008KT 12/03 A3002 RMK A01 T01230030  RH  054%=      5-min Rain = 0
KDR1 141210Z 26008KT 12/03 A3003 RMK A01 T01220030  RH  054%=      5-min Rain = 0
KDR1 141215Z 26007KT 12/03 A3003 RMK A01 T01170030  RH  056%=      5-min Rain = 0
KDR1 141220Z 27006KT 12/03 A3003 RMK A01 T01180030  RH  056%=      5-min Rain = 0
KDR1 141225Z 26007KT 12/03 A3003 RMK A01 T01220028  RH  054%=      5-min Rain = 0
KDR1 141230Z 25006KT 12/03 A3003 RMK A01 T01230028  RH  053%=      5-min Rain = 0
KDR1 141235Z 24007KT 11/03 A3004 RMK A01 T01090031  RH  060%=      5-min Rain = 0
KDR1 141240Z 23008KT 11/03 A3004 RMK A01 T01070032  RH  061%=      5-min Rain = 0
KDR1 141245Z 25008KT 11/03 A3004 RMK A01 T01080032  RH  061%=      5-min Rain = 0
KDR1 141250Z 25007KT 11/03 A3004 RMK A01 T01090032  RH  060%=      5-min Rain = 0
KDR1 141255Z 25008KT 11/03 A3004 RMK A01 T01100032  RH  059%=      5-min Rain = 0
KDR1 141300Z 25007KT 11/03 A3004 RMK A01 T01090031  RH  060%=      5-min Rain = 0
KDR1 141305Z 26007KT 11/03 A3004 RMK A01 T01120029  RH  057%=      5-min Rain = 0
KDR1 141310Z 25007KT 12/03 A3004 RMK A01 T01200028  RH  054%=      5-min Rain = 0
KDR1 141315Z 26007KT 12/03 A3004 RMK A01 T01180028  RH  055%=      5-min Rain = 0
KDR1 141320Z 26007KT 12/03 A3004 RMK A01 T01160028  RH  056%=      5-min Rain = 0
KDR1 141325Z 27006KT 11/03 A3004 RMK A01 T01140029  RH  057%=      5-min Rain = 0
KDR1 141330Z 27006KT 12/03 A3004 RMK A01 T01160028  RH  056%=      5-min Rain = 0
KDR1 141335Z 27006KT 12/03 A3004 RMK A01 T01230027  RH  053%=      5-min Rain = 0
KDR1 141340Z 26006KT 12/03 A3004 RMK A01 T01230029  RH  053%=      5-min Rain = 0
KDR1 141345Z 25006KT 12/03 A3004 RMK A01 T01210030  RH  055%=      5-min Rain = 0
KDR1 141350Z 27006KT 13/03 A3004 RMK A01 T01270029  RH  052%=      5-min Rain = 0
KDR1 141355Z 28006KT 14/03 A3004 RMK A01 T01380027  RH  048%=      5-min Rain = 0
KDR1 141400Z 27005KT 15/03 A3005 RMK A01 T01470028  RH  045%=      5-min Rain = 0
KDR1 141405Z 26006KT 15/03 A3005 RMK A01 T01500029  RH  045%=      5-min Rain = 0
KDR1 141410Z 25006KT 15/03 A3005 RMK A01 T01480032  RH  046%=      5-min Rain = 0
KDR1 141415Z 27005KT 15/03 A3005 RMK A01 T01520032  RH  045%=      5-min Rain = 0
KDR1 141420Z 26005KT 16/03 A3005 RMK A01 T01620030  RH  042%=      5-min Rain = 0
KDR1 141425Z 26006KT 16/03 A3006 RMK A01 T01640033  RH  042%=      5-min Rain = 0
KDR1 141430Z 26006KT 17/03 A3006 RMK A01 T01660031  RH  041%=      5-min Rain = 0
KDR1 141435Z 26006KT 17/03 A3006 RMK A01 T01730033  RH  040%=      5-min Rain = 0
KDR1 141440Z 27006KT 18/03 A3006 RMK A01 T01790031  RH  038%=      5-min Rain = 0
KDR1 141445Z 27006KT 18/03 A3006 RMK A01 T01840028  RH  036%=      5-min Rain = 0
KDR1 141450Z 27007KT 19/03 A3006 RMK A01 T01910027  RH  034%=      5-min Rain = 0
KDR1 141455Z 28006KT 19/02 A3006 RMK A01 T01930021  RH  032%=      5-min Rain = 0
KDR1 141500Z 27006KT 20/02 A3006 RMK A01 T01970024  RH  032%=      5-min Rain = 0
KDR1 141505Z 27007KT 20/03 A3006 RMK A01 T01980025  RH  032%=      5-min Rain = 0
KDR1 141510Z 27007KT 20/03 A3007 RMK A01 T01970027  RH  033%=      5-min Rain = 0
KDR1 141515Z 27007KT 20/03 A3007 RMK A01 T01990028  RH  033%=      5-min Rain = 0
KDR1 141520Z 28007KT 20/02 A3007 RMK A01 T02020023  RH  031%=      5-min Rain = 0
KDR1 141525Z 27005KT 21/03 A3007 RMK A01 T02060031  RH  032%=      5-min Rain = 0
KDR1 141530Z 27006KT 21/03 A3007 RMK A01 T02080030  RH  031%=      5-min Rain = 0
KDR1 141535Z 27006KT 21/03 A3007 RMK A01 T02130030  RH  030%=      5-min Rain = 0
KDR1 141540Z 26006KT 22/03 A3007 RMK A01 T02160031  RH  030%=      5-min Rain = 0
KDR1 141545Z 26006KT 22/03 A3007 RMK A01 T02190027  RH  029%=      5-min Rain = 0
KDR1 141550Z 27006KT 22/03 A3007 RMK A01 T02220030  RH  029%=      5-min Rain = 0
KDR1 141555Z 27006KT 22/03 A3007 RMK A01 T02240029  RH  028%=      5-min Rain = 0
KDR1 141600Z 27006KT 23/03 A3007 RMK A01 T02290031  RH  028%=      5-min Rain = 0
KDR1 141605Z 26006KT 23/03 A3007 RMK A01 T02320030  RH  027%=      5-min Rain = 0
KDR1 141610Z 26006KT 24/03 A3007 RMK A01 T02350030  RH  027%=      5-min Rain = 0
KDR1 141615Z 26006KT 24/03 A3006 RMK A01 T02390027  RH  025%=      5-min Rain = 0
KDR1 141620Z 26007KT 24/03 A3006 RMK A01 T02430030  RH  026%=      5-min Rain = 0
KDR1 141625Z 26009KT 24/03 A3006 RMK A01 T02440034  RH  026%=      5-min Rain = 0
KDR1 141630Z 25009KT 25/03 A3006 RMK A01 T02450034  RH  026%=      5-min Rain = 0
KDR1 141635Z 26007G12KT 25/04 A3006 RMK A01 T02480035  RH  026%=      5-min Rain = 0
KDR1 141640Z 26008KT 25/03 A3006 RMK A01 T02480033  RH  025%=      5-min Rain = 0
KDR1 141645Z 27008KT 25/03 A3006 RMK A01 T02490034  RH  025%=      5-min Rain = 0
KDR1 141650Z 28007KT 25/03 A3006 RMK A01 T02540034  RH  025%=      5-min Rain = 0
KDR1 141655Z 28007KT 25/03 A3005 RMK A01 T02530030  RH  024%=      5-min Rain = 0
KDR1 141700Z 28007KT 25/03 A3005 RMK A01 T02530030  RH  024%=      5-min Rain = 0
KDR1 141705Z 27007KT 25/02 A3005 RMK A01 T02530019  RH  022%=      5-min Rain = 0
KDR1 141710Z 27006KT 25/01 A3005 RMK A01 T02520011  RH  021%=      5-min Rain = 0
KDR1 141715Z 27006KT 26/01 A3005 RMK A01 T02560010  RH  020%=      5-min Rain = 0
KDR1 141720Z 26006KT 25/00 A3005 RMK A01 T02530001  RH  019%=      5-min Rain = 0
KDR1 141725Z 26006G12KT 26/00 A3004 RMK A01 T02550003  RH  019%=      5-min Rain = 0
KDR1 141730Z 26005KT 26/M00 A3004 RMK A01 T02561004  RH  018%=      5-min Rain = 0
KDR1 141735Z 28007KT 26/01 A3004 RMK A01 T02610006  RH  019%=      5-min Rain = 0
KDR1 141740Z 30007KT 26/01 A3004 RMK A01 T02600010  RH  020%=      5-min Rain = 0
KDR1 141745Z 29006G11KT 26/01 A3003 RMK A01 T02600005  RH  019%=      5-min Rain = 0
KDR1 141750Z 28007KT 26/02 A3003 RMK A01 T02640017  RH  020%=      5-min Rain = 0
KDR1 141755Z 25007KT 26/02 A3003 RMK A01 T02590017  RH  021%=      5-min Rain = 0
KDR1 141800Z 30007G14KT 26/02 A3003 RMK A01 T02640021  RH  021%=      5-min Rain = 0
KDR1 141805Z 29007KT 26/02 A3003 RMK A01 T02630018  RH  021%=      5-min Rain = 0
KDR1 141810Z 28007KT 26/02 A3003 RMK A01 T02620015  RH  020%=      5-min Rain = 0
KDR1 141815Z 26006G11KT 26/01 A3003 RMK A01 T02620012  RH  020%=      5-min Rain = 0
KDR1 141820Z 26006G12KT 26/01 A3003 RMK A01 T02620007  RH  019%=      5-min Rain = 0
KDR1 141825Z 26006G13KT 27/01 A3002 RMK A01 T02670012  RH  019%=      5-min Rain = 0
KDR1 141830Z 25008G14KT 26/M01 A3002 RMK A01 T02641006  RH  017%=      5-min Rain = 0
KDR1 141835Z 23006G12KT 27/00 A3002 RMK A01 T02650003  RH  018%=      5-min Rain = 0
KDR1 141840Z 25008G13KT 27/00 A3002 RMK A01 T02660002  RH  018%=      5-min Rain = 0
KDR1 141845Z 23009G14KT 27/00 A3001 RMK A01 T02660004  RH  018%=      5-min Rain = 0
KDR1 141850Z 23005KT 27/01 A3001 RMK A01 T02660006  RH  019%=      5-min Rain = 0
KDR1 141855Z 27010G16KT 27/00 A3001 RMK A01 T02680002  RH  018%=      5-min Rain = 0
KDR1 141900Z 24006G11KT 27/M00 A3001 RMK A01 T02681002  RH  017%=      5-min Rain = 0
KDR1 141905Z 24004G14KT 27/00 A30 RMK A01 T02690000  RH  017%=      5-min Rain = 0
KDR1 141910Z 26010KT 27/M01 A30 RMK A01 T02701005  RH  017%=      5-min Rain = 0
KDR1 141915Z 25007G15KT 27/M00 A30 RMK A01 T02671004  RH  017%=      5-min Rain = 0
KDR1 141920Z 23006KT 27/M00 A2999 RMK A01 T02721001  RH  017%=      5-min Rain = 0
KDR1 141925Z 23010G15KT 27/M00 A2999 RMK A01 T02711003  RH  017%=      5-min Rain = 0
KDR1 141930Z 21008G14KT 27/M00 A2999 RMK A01 T02741002  RH  017%=      5-min Rain = 0
KDR1 141935Z 23009G17KT 27/M01 A2999 RMK A01 T02721007  RH  016%=      5-min Rain = 0
KDR1 141940Z 25008KT 27/M01 A2998 RMK A01 T02711005  RH  017%=      5-min Rain = 0
KDR1 141945Z 24007G13KT 27/M01 A2998 RMK A01 T02721005  RH  017%=      5-min Rain = 0
KDR1 141950Z 22006KT 27/M01 A2998 RMK A01 T02731005  RH  016%=      5-min Rain = 0
KDR1 141955Z 24008G15KT 28/M01 A2997 RMK A01 T02751006  RH  016%=      5-min Rain = 0
KDR1 142000Z 27009KT 27/M01 A2997 RMK A01 T02731009  RH  016%=      5-min Rain = 0
KDR1 142005Z 25006KT 27/M01 A2997 RMK A01 T02681010  RH  016%=      5-min Rain = 0
KDR1 142010Z 25002KT 27/M01 A2997 RMK A01 T02731007  RH  016%=      5-min Rain = 0
KDR1 142015Z 31002G8KT 27/M00 A2997 RMK A01 T02741002  RH  017%=      5-min Rain = 0
KDR1 142020Z 29007KT 28/M01 A2996 RMK A01 T02781009  RH  015%=      5-min Rain = 0
KDR1 142025Z 25009KT 28/M01 A2996 RMK A01 T02781010  RH  015%=      5-min Rain = 0
KDR1 142030Z 22005KT 28/M00 A2996 RMK A01 T02841001  RH  016%=      5-min Rain = 0
KDR1 142035Z 24006G11KT 28/M01 A2996 RMK A01 T02821009  RH  015%=      5-min Rain = 0
KDR1 142040Z 24010KT 28/M01 A2996 RMK A01 T02781014  RH  015%=      5-min Rain = 0
KDR1 142045Z 25008KT 27/M02 A2996 RMK A01 T02741016  RH  015%=      5-min Rain = 0
KDR1 142050Z 27008KT 27/M02 A2996 RMK A01 T02741017  RH  015%=      5-min Rain = 0
KDR1 142055Z 28005G11KT 27/M02 A2996 RMK A01 T02711019  RH  015%=      5-min Rain = 0
KDR1 142100Z 29005KT 28/M02 A2996 RMK A01 T02751018  RH  015%=      5-min Rain = 0
KDR1 142105Z 24006KT 28/M02 A2996 RMK A01 T02781016  RH  015%=      5-min Rain = 0
KDR1 142110Z 26007G12KT 28/M02 A2995 RMK A01 T02761017  RH  015%=      5-min Rain = 0
KDR1 142115Z 25007G13KT 28/M01 A2995 RMK A01 T02761014  RH  015%=      5-min Rain = 0
KDR1 142120Z 24012KT 28/M01 A2995 RMK A01 T02761009  RH  016%=      5-min Rain = 0
KDR1 142125Z 22007KT 28/M01 A2995 RMK A01 T02751009  RH  016%=      5-min Rain = 0
KDR1 142130Z 22008G13KT 27/M01 A2995 RMK A01 T02741008  RH  016%=      5-min Rain = 0
KDR1 142135Z 23010KT 28/M01 A2995 RMK A01 T02751007  RH  016%=      5-min Rain = 0
KDR1 142140Z 24009G14KT 28/M01 A2995 RMK A01 T02791006  RH  016%=      5-min Rain = 0
KDR1 142145Z 23008G13KT 28/M01 A2995 RMK A01 T02761011  RH  015%=      5-min Rain = 0
KDR1 142150Z 24010G16KT 28/M02 A2995 RMK A01 T02781016  RH  015%=      5-min Rain = 0
KDR1 142155Z 25010G15KT 28/M01 A2995 RMK A01 T02751014  RH  015%=      5-min Rain = 0
KDR1 142200Z 25007KT 28/M01 A2995 RMK A01 T02761010  RH  016%=      5-min Rain = 0
KDR1 142205Z 24009G15KT 28/M02 A2995 RMK A01 T02771015  RH  015%=      5-min Rain = 0
KDR1 142210Z 23010KT 27/M02 A2995 RMK A01 T02731018  RH  015%=      5-min Rain = 0
KDR1 142215Z 23008KT 27/M01 A2995 RMK A01 T02741011  RH  016%=      5-min Rain = 0
KDR1 142220Z 21007KT 27/M00 A2995 RMK A01 T02741004  RH  016%=      5-min Rain = 0
KDR1 142225Z 24010KT 28/M01 A2995 RMK A01 T02751010  RH  016%=      5-min Rain = 0
KDR1 142230Z 23010G16KT 27/M01 A2995 RMK A01 T02721012  RH  016%=      5-min Rain = 0
KDR1 142235Z 25013KT 27/M01 A2995 RMK A01 T02691013  RH  016%=      5-min Rain = 0
KDR1 142240Z 23009G15KT 27/M01 A2995 RMK A01 T02691013  RH  016%=      5-min Rain = 0
KDR1 142245Z 23008KT 27/M00 A2995 RMK A01 T02711003  RH  017%=      5-min Rain = 0
KDR1 142250Z 21008G14KT 27/00 A2995 RMK A01 T026900-0  RH  017%=      5-min Rain = 0
KDR1 142255Z 21008KT 27/M00 A2995 RMK A01 T02681002  RH  017%=      5-min Rain = 0
KDR1 142300Z 23009G15KT 27/M00 A2995 RMK A01 T02681003  RH  017%=      5-min Rain = 0
KDR1 142305Z 23011KT 27/00 A2995 RMK A01 T02650003  RH  018%=      5-min Rain = 0
KDR1 142310Z 23009KT 27/00 A2995 RMK A01 T02650004  RH  018%=      5-min Rain = 0
KDR1 142315Z 23008KT 26/01 A2995 RMK A01 T02640007  RH  019%=      5-min Rain = 0
KDR1 142320Z 22009KT 26/01 A2995 RMK A01 T02630014  RH  020%=      5-min Rain = 0
KDR1 142325Z 22009G14KT 26/01 A2995 RMK A01 T02610013  RH  020%=      5-min Rain = 0
KDR1 142330Z 23009KT 26/01 A2995 RMK A01 T02600012  RH  020%=      5-min Rain = 0
KDR1 142335Z 23008KT 26/01 A2995 RMK A01 T02580012  RH  020%=      5-min Rain = 0
KDR1 142340Z 23008KT 26/01 A2995 RMK A01 T02560012  RH  021%=      5-min Rain = 0
KDR1 142345Z 23008KT 25/02 A2995 RMK A01 T02530015  RH  021%=      5-min Rain = 0
KDR1 142350Z 23008KT 25/02 A2995 RMK A01 T02490018  RH  022%=      5-min Rain = 0
KDR1 142355Z 22009KT 25/02 A2995 RMK A01 T02450022  RH  024%=      5-min Rain = 0
KDR1 150000Z 22009KT 24/03 A2995 RMK A01 T02390025  RH  025%=      5-min Rain = 0
KDR1 150005Z 22008KT 24/03 A2996 RMK A01 T02350026  RH  026%=      5-min Rain = 0
KDR1 150010Z 22008KT 23/03 A2996 RMK A01 T02310025  RH  026%=      5-min Rain = 0
KDR1 150015Z 21008KT 22/03 A2996 RMK A01 T02240031  RH  029%=      5-min Rain = 0
KDR1 150020Z 21007KT 21/04 A2996 RMK A01 T02140036  RH  032%=      5-min Rain = 0
KDR1 150025Z 22009KT 21/04 A2996 RMK A01 T02100037  RH  032%=      5-min Rain = 0
KDR1 150030Z 21009KT 21/04 A2996 RMK A01 T02080038  RH  033%=      5-min Rain = 0
KDR1 150035Z 22009KT 21/04 A2996 RMK A01 T02050039  RH  034%=      5-min Rain = 0
KDR1 150040Z 21007KT 20/04 A2996 RMK A01 T02020041  RH  035%=      5-min Rain = 0
KDR1 150045Z 21009KT 20/04 A2996 RMK A01 T02020041  RH  035%=      5-min Rain = 0
KDR1 150050Z 21009KT 20/04 A2996 RMK A01 T02020044  RH  036%=      5-min Rain = 0
KDR1 150055Z 21010KT 20/05 A2997 RMK A01 T01990046  RH  037%=      5-min Rain = 0
KDR1 150100Z 21010KT 20/05 A2997 RMK A01 T01960048  RH  038%=      5-min Rain = 0
KDR1 150105Z 21010KT 19/05 A2997 RMK A01 T01920049  RH  040%=      5-min Rain = 0
KDR1 150110Z 22011KT 19/05 A2997 RMK A01 T01880051  RH  041%=      5-min Rain = 0
KDR1 150115Z 22011KT 18/05 A2997 RMK A01 T01830052  RH  043%=      5-min Rain = 0
KDR1 150120Z 22011KT 18/05 A2997 RMK A01 T01820052  RH  043%=      5-min Rain = 0
KDR1 150125Z 22009KT 18/05 A2997 RMK A01 T01810052  RH  044%=      5-min Rain = 0
KDR1 150130Z 21008KT 18/05 A2998 RMK A01 T01790053  RH  045%=      5-min Rain = 0
KDR1 150135Z 22009KT 18/05 A2998 RMK A01 T01780054  RH  045%=      5-min Rain = 0
KDR1 150140Z 22009KT 18/05 A2998 RMK A01 T01760054  RH  046%=      5-min Rain = 0
KDR1 150145Z 22009KT 17/06 A2998 RMK A01 T01740055  RH  046%=      5-min Rain = 0
KDR1 150150Z 22010KT 17/06 A2998 RMK A01 T01730055  RH  047%=      5-min Rain = 0
KDR1 150155Z 22010KT 17/06 A2998 RMK A01 T01720055  RH  047%=      5-min Rain = 0
KDR1 150200Z 22010KT 17/06 A2998 RMK A01 T01710056  RH  048%=      5-min Rain = 0
KDR1 150205Z 22012KT 17/06 A2998 RMK A01 T01730056  RH  047%=      5-min Rain = 0
KDR1 150210Z 22011KT 18/06 A2998 RMK A01 T01750055  RH  046%=      5-min Rain = 0
KDR1 150215Z 22011KT 17/06 A2998 RMK A01 T01740055  RH  047%=      5-min Rain = 0
KDR1 150220Z 22011KT 17/06 A2999 RMK A01 T01730055  RH  047%=      5-min Rain = 0
KDR1 150225Z 22010KT 17/06 A2999 RMK A01 T01700055  RH  048%=      5-min Rain = 0
KDR1 150230Z 23011KT 17/06 A2999 RMK A01 T01690056  RH  048%=      5-min Rain = 0
KDR1 150235Z 23011KT 17/06 A2999 RMK A01 T01670057  RH  049%=      5-min Rain = 0
KDR1 150240Z 22010KT 17/06 A2999 RMK A01 T01670057  RH  050%=      5-min Rain = 0
KDR1 150245Z 22009KT 16/06 A2999 RMK A01 T01630058  RH  051%=      5-min Rain = 0
KDR1 150250Z 22010KT 16/06 A2999 RMK A01 T01630059  RH  051%=      5-min Rain = 0
KDR1 150255Z 22010KT 16/06 A2999 RMK A01 T01640059  RH  051%=      5-min Rain = 0
KDR1 150300Z 22009KT 16/06 A2999 RMK A01 T01640060  RH  051%=      5-min Rain = 0
KDR1 150305Z 23008KT 16/06 A2999 RMK A01 T01630060  RH  052%=      5-min Rain = 0
KDR1 150310Z 22009KT 16/06 A30 RMK A01 T01590061  RH  053%=      5-min Rain = 0
KDR1 150315Z 22009KT 16/06 A30 RMK A01 T01600062  RH  054%=      5-min Rain = 0
KDR1 150320Z 22011KT 16/06 A30 RMK A01 T01610064  RH  054%=      5-min Rain = 0
KDR1 150325Z 22011KT 16/07 A30 RMK A01 T01610065  RH  054%=      5-min Rain = 0
KDR1 150330Z 22011KT 16/07 A30 RMK A01 T01620067  RH  055%=      5-min Rain = 0
KDR1 150335Z 22011KT 16/07 A30 RMK A01 T01620070  RH  056%=      5-min Rain = 0
KDR1 150340Z 22011KT 16/07 A30 RMK A01 T01630074  RH  057%=      5-min Rain = 0
KDR1 150345Z 22011KT 16/08 A30 RMK A01 T01640078  RH  058%=      5-min Rain = 0
KDR1 150350Z 23012KT 17/08 A30 RMK A01 T01660083  RH  060%=      5-min Rain = 0
KDR1 150355Z 22012KT 17/09 A30 RMK A01 T01680087  RH  060%=      5-min Rain = 0
KDR1 150400Z 22011KT 17/09 A30 RMK A01 T01680089  RH  062%=      5-min Rain = 0
KDR1 150405Z 23011KT 17/09 A3001 RMK A01 T01670091  RH  063%=      5-min Rain = 0
KDR1 150410Z 23011KT 17/09 A3001 RMK A01 T01670093  RH  064%=      5-min Rain = 0
KDR1 150415Z 23011KT 17/10 A3001 RMK A01 T01680095  RH  064%=      5-min Rain = 0
KDR1 150420Z 23011KT 17/10 A3001 RMK A01 T01670098  RH  066%=      5-min Rain = 0
KDR1 150425Z 23010KT 17/10 A3001 RMK A01 T01670100  RH  067%=      5-min Rain = 0
KDR1 150430Z 22012KT 17/10 A3001 RMK A01 T01680103  RH  068%=      5-min Rain = 0
KDR1 150435Z 22012KT 17/11 A3001 RMK A01 T01700105  RH  068%=      5-min Rain = 0
KDR1 150440Z 23012KT 17/11 A3001 RMK A01 T01730107  RH  068%=      5-min Rain = 0
KDR1 150445Z 22012KT 17/11 A3001 RMK A01 T01690107  RH  069%=      5-min Rain = 0
KDR1 150450Z 23012G17KT 17/11 A3001 RMK A01 T01740110  RH  068%=      5-min Rain = 0
KDR1 150455Z 23011KT 17/11 A3001 RMK A01 T01710110  RH  069%=      5-min Rain = 0

Page generated in 0.0203 seconds.